sensor_id;sensor_type;location;lat;lon;timestamp;P1;durP1;ratioP1;P2;durP2;ratioP2
74064;SDS011;62421;51.412;5.432;2023-09-08T00:02:05;12.83;;;6.33;;
74064;SDS011;62421;51.412;5.432;2023-09-08T00:04:30;12.87;;;6.57;;
74064;SDS011;62421;51.412;5.432;2023-09-08T00:06:55;12.50;;;5.63;;
74064;SDS011;62421;51.412;5.432;2023-09-08T00:09:21;11.70;;;7.67;;
74064;SDS011;62421;51.412;5.432;2023-09-08T00:11:46;16.47;;;7.53;;
74064;SDS011;62421;51.412;5.432;2023-09-08T00:14:11;9.87;;;6.43;;
74064;SDS011;62421;51.412;5.432;2023-09-08T00:16:37;11.07;;;6.27;;
74064;SDS011;62421;51.412;5.432;2023-09-08T00:19:04;11.70;;;6.53;;
74064;SDS011;62421;51.412;5.432;2023-09-08T00:21:29;10.53;;;6.40;;
74064;SDS011;62421;51.412;5.432;2023-09-08T00:23:54;9.40;;;6.53;;
74064;SDS011;62421;51.412;5.432;2023-09-08T00:26:20;12.52;;;6.82;;
74064;SDS011;62421;51.412;5.432;2023-09-08T00:28:45;13.97;;;6.50;;
74064;SDS011;62421;51.412;5.432;2023-09-08T00:31:12;14.30;;;6.57;;
74064;SDS011;62421;51.412;5.432;2023-09-08T00:33:37;17.27;;;6.60;;
74064;SDS011;62421;51.412;5.432;2023-09-08T00:36:02;10.47;;;6.43;;
74064;SDS011;62421;51.412;5.432;2023-09-08T00:38:28;12.00;;;6.80;;
74064;SDS011;62421;51.412;5.432;2023-09-08T00:40:53;10.17;;;6.30;;
74064;SDS011;62421;51.412;5.432;2023-09-08T00:43:19;10.23;;;6.70;;
74064;SDS011;62421;51.412;5.432;2023-09-08T00:45:44;11.50;;;6.90;;
74064;SDS011;62421;51.412;5.432;2023-09-08T00:48:10;10.88;;;7.53;;
74064;SDS011;62421;51.412;5.432;2023-09-08T00:50:36;11.88;;;6.72;;
74064;SDS011;62421;51.412;5.432;2023-09-08T00:53:05;11.00;;;6.77;;
74064;SDS011;62421;51.412;5.432;2023-09-08T00:55:31;10.27;;;6.53;;
74064;SDS011;62421;51.412;5.432;2023-09-08T00:57:57;13.05;;;6.95;;
74064;SDS011;62421;51.412;5.432;2023-09-08T01:00:24;14.13;;;8.88;;
74064;SDS011;62421;51.412;5.432;2023-09-08T01:02:49;10.73;;;7.00;;
74064;SDS011;62421;51.412;5.432;2023-09-08T01:05:15;10.23;;;6.13;;
74064;SDS011;62421;51.412;5.432;2023-09-08T01:07:41;11.60;;;6.45;;
74064;SDS011;62421;51.412;5.432;2023-09-08T01:10:07;18.33;;;6.70;;
74064;SDS011;62421;51.412;5.432;2023-09-08T01:12:33;11.65;;;6.47;;
74064;SDS011;62421;51.412;5.432;2023-09-08T01:14:59;11.30;;;6.37;;
74064;SDS011;62421;51.412;5.432;2023-09-08T01:17:25;9.70;;;6.63;;
74064;SDS011;62421;51.412;5.432;2023-09-08T01:19:51;10.13;;;6.70;;
74064;SDS011;62421;51.412;5.432;2023-09-08T01:25:25;11.98;;;7.40;;
74064;SDS011;62421;51.412;5.432;2023-09-08T01:27:54;10.07;;;6.80;;
74064;SDS011;62421;51.412;5.432;2023-09-08T01:30:23;12.25;;;6.25;;
74064;SDS011;62421;51.412;5.432;2023-09-08T01:32:50;12.27;;;6.93;;
74064;SDS011;62421;51.412;5.432;2023-09-08T01:35:17;13.15;;;6.60;;
74064;SDS011;62421;51.412;5.432;2023-09-08T01:37:46;10.70;;;6.77;;
74064;SDS011;62421;51.412;5.432;2023-09-08T01:40:12;10.27;;;6.50;;
74064;SDS011;62421;51.412;5.432;2023-09-08T01:42:38;13.10;;;7.37;;
74064;SDS011;62421;51.412;5.432;2023-09-08T01:45:04;14.10;;;7.28;;
74064;SDS011;62421;51.412;5.432;2023-09-08T01:47:30;10.50;;;6.60;;
74064;SDS011;62421;51.412;5.432;2023-09-08T01:49:56;10.67;;;7.23;;
74064;SDS011;62421;51.412;5.432;2023-09-08T01:52:21;11.40;;;6.80;;
74064;SDS011;62421;51.412;5.432;2023-09-08T01:54:47;10.47;;;7.27;;
74064;SDS011;62421;51.412;5.432;2023-09-08T01:57:12;13.13;;;7.20;;
74064;SDS011;62421;51.412;5.432;2023-09-08T01:59:37;11.33;;;7.00;;
74064;SDS011;62421;51.412;5.432;2023-09-08T02:02:03;12.37;;;6.97;;
74064;SDS011;62421;51.412;5.432;2023-09-08T02:04:29;12.27;;;7.20;;
74064;SDS011;62421;51.412;5.432;2023-09-08T02:06:54;14.50;;;7.37;;
74064;SDS011;62421;51.412;5.432;2023-09-08T02:09:19;14.17;;;7.03;;
74064;SDS011;62421;51.412;5.432;2023-09-08T02:11:45;14.47;;;7.10;;
74064;SDS011;62421;51.412;5.432;2023-09-08T02:14:10;11.70;;;7.03;;
74064;SDS011;62421;51.412;5.432;2023-09-08T02:16:35;13.80;;;7.53;;
74064;SDS011;62421;51.412;5.432;2023-09-08T02:19:01;13.67;;;7.67;;
74064;SDS011;62421;51.412;5.432;2023-09-08T02:21:26;13.25;;;7.75;;
74064;SDS011;62421;51.412;5.432;2023-09-08T02:23:51;12.10;;;7.17;;
74064;SDS011;62421;51.412;5.432;2023-09-08T02:26:16;14.20;;;8.20;;
74064;SDS011;62421;51.412;5.432;2023-09-08T02:28:42;11.57;;;7.53;;
74064;SDS011;62421;51.412;5.432;2023-09-08T02:31:07;10.77;;;6.33;;
74064;SDS011;62421;51.412;5.432;2023-09-08T02:33:33;9.77;;;6.40;;
74064;SDS011;62421;51.412;5.432;2023-09-08T02:36:04;13.07;;;7.63;;
74064;SDS011;62421;51.412;5.432;2023-09-08T02:38:33;12.27;;;7.15;;
74064;SDS011;62421;51.412;5.432;2023-09-08T02:40:58;15.03;;;7.70;;
74064;SDS011;62421;51.412;5.432;2023-09-08T02:43:23;12.00;;;7.00;;
74064;SDS011;62421;51.412;5.432;2023-09-08T02:45:49;14.13;;;7.40;;
74064;SDS011;62421;51.412;5.432;2023-09-08T02:48:15;14.95;;;7.47;;
74064;SDS011;62421;51.412;5.432;2023-09-08T02:50:41;12.63;;;7.70;;
74064;SDS011;62421;51.412;5.432;2023-09-08T02:53:07;10.77;;;7.30;;
74064;SDS011;62421;51.412;5.432;2023-09-08T02:55:32;13.47;;;6.90;;
74064;SDS011;62421;51.412;5.432;2023-09-08T02:57:57;12.43;;;7.37;;
74064;SDS011;62421;51.412;5.432;2023-09-08T03:00:22;13.40;;;7.27;;
74064;SDS011;62421;51.412;5.432;2023-09-08T03:02:48;11.07;;;7.47;;
74064;SDS011;62421;51.412;5.432;2023-09-08T03:05:13;10.80;;;7.07;;
74064;SDS011;62421;51.412;5.432;2023-09-08T03:07:38;14.15;;;7.55;;
74064;SDS011;62421;51.412;5.432;2023-09-08T03:10:04;12.57;;;7.25;;
74064;SDS011;62421;51.412;5.432;2023-09-08T03:12:30;12.97;;;7.77;;
74064;SDS011;62421;51.412;5.432;2023-09-08T03:14:56;11.70;;;6.70;;
74064;SDS011;62421;51.412;5.432;2023-09-08T03:17:21;13.23;;;7.20;;
74064;SDS011;62421;51.412;5.432;2023-09-08T03:19:46;13.20;;;7.13;;
74064;SDS011;62421;51.412;5.432;2023-09-08T03:22:12;10.50;;;6.57;;
74064;SDS011;62421;51.412;5.432;2023-09-08T03:24:37;11.77;;;6.97;;
74064;SDS011;62421;51.412;5.432;2023-09-08T03:27:02;10.33;;;6.93;;
74064;SDS011;62421;51.412;5.432;2023-09-08T03:29:28;11.48;;;7.22;;
74064;SDS011;62421;51.412;5.432;2023-09-08T03:31:53;10.33;;;6.93;;
74064;SDS011;62421;51.412;5.432;2023-09-08T03:34:19;11.90;;;7.07;;
74064;SDS011;62421;51.412;5.432;2023-09-08T03:36:45;12.15;;;7.55;;
74064;SDS011;62421;51.412;5.432;2023-09-08T03:39:11;11.40;;;7.73;;
74064;SDS011;62421;51.412;5.432;2023-09-08T03:41:36;11.87;;;7.23;;
74064;SDS011;62421;51.412;5.432;2023-09-08T03:44:02;11.65;;;6.45;;
74064;SDS011;62421;51.412;5.432;2023-09-08T03:46:27;11.17;;;6.03;;
74064;SDS011;62421;51.412;5.432;2023-09-08T03:48:52;10.57;;;7.00;;
74064;SDS011;62421;51.412;5.432;2023-09-08T03:51:23;11.70;;;6.97;;
74064;SDS011;62421;51.412;5.432;2023-09-08T03:53:49;12.37;;;7.30;;
74064;SDS011;62421;51.412;5.432;2023-09-08T03:56:14;12.07;;;7.23;;
74064;SDS011;62421;51.412;5.432;2023-09-08T03:58:40;14.68;;;6.90;;
74064;SDS011;62421;51.412;5.432;2023-09-08T04:01:05;11.00;;;7.18;;
74064;SDS011;62421;51.412;5.432;2023-09-08T04:03:30;16.88;;;7.72;;
74064;SDS011;62421;51.412;5.432;2023-09-08T04:05:56;13.93;;;7.40;;
74064;SDS011;62421;51.412;5.432;2023-09-08T04:08:21;13.67;;;7.73;;
74064;SDS011;62421;51.412;5.432;2023-09-08T04:10:46;10.00;;;6.57;;
74064;SDS011;62421;51.412;5.432;2023-09-08T04:13:11;10.87;;;7.13;;
74064;SDS011;62421;51.412;5.432;2023-09-08T04:15:37;11.80;;;7.67;;
74064;SDS011;62421;51.412;5.432;2023-09-08T04:18:02;12.50;;;6.90;;
74064;SDS011;62421;51.412;5.432;2023-09-08T04:20:28;13.23;;;7.33;;
74064;SDS011;62421;51.412;5.432;2023-09-08T04:22:53;12.60;;;8.27;;
74064;SDS011;62421;51.412;5.432;2023-09-08T04:25:18;15.27;;;7.57;;
74064;SDS011;62421;51.412;5.432;2023-09-08T04:27:44;10.57;;;7.05;;
74064;SDS011;62421;51.412;5.432;2023-09-08T04:30:09;15.13;;;8.13;;
74064;SDS011;62421;51.412;5.432;2023-09-08T04:32:35;12.60;;;8.35;;
74064;SDS011;62421;51.412;5.432;2023-09-08T04:35:02;13.90;;;8.33;;
74064;SDS011;62421;51.412;5.432;2023-09-08T04:37:28;12.15;;;7.55;;
74064;SDS011;62421;51.412;5.432;2023-09-08T04:39:55;13.80;;;8.38;;
74064;SDS011;62421;51.412;5.432;2023-09-08T04:42:20;16.07;;;9.87;;
74064;SDS011;62421;51.412;5.432;2023-09-08T04:44:46;11.83;;;7.90;;
74064;SDS011;62421;51.412;5.432;2023-09-08T04:47:11;14.80;;;8.83;;
74064;SDS011;62421;51.412;5.432;2023-09-08T04:49:36;13.17;;;8.50;;
74064;SDS011;62421;51.412;5.432;2023-09-08T04:52:02;13.85;;;8.32;;
74064;SDS011;62421;51.412;5.432;2023-09-08T04:54:28;12.07;;;7.63;;
74064;SDS011;62421;51.412;5.432;2023-09-08T04:56:53;12.35;;;7.80;;
74064;SDS011;62421;51.412;5.432;2023-09-08T04:59:19;12.40;;;8.57;;
74064;SDS011;62421;51.412;5.432;2023-09-08T05:01:45;13.15;;;8.55;;
74064;SDS011;62421;51.412;5.432;2023-09-08T05:04:10;12.73;;;8.43;;
74064;SDS011;62421;51.412;5.432;2023-09-08T05:06:36;16.58;;;9.15;;
74064;SDS011;62421;51.412;5.432;2023-09-08T05:09:02;12.40;;;8.73;;
74064;SDS011;62421;51.412;5.432;2023-09-08T05:11:28;12.98;;;8.65;;
74064;SDS011;62421;51.412;5.432;2023-09-08T05:13:53;13.07;;;8.75;;
74064;SDS011;62421;51.412;5.432;2023-09-08T05:16:19;15.03;;;9.17;;
74064;SDS011;62421;51.412;5.432;2023-09-08T05:18:50;14.18;;;9.27;;
74064;SDS011;62421;51.412;5.432;2023-09-08T05:21:16;17.53;;;8.53;;
74064;SDS011;62421;51.412;5.432;2023-09-08T05:23:41;14.43;;;8.83;;
74064;SDS011;62421;51.412;5.432;2023-09-08T05:26:07;14.53;;;9.03;;
74064;SDS011;62421;51.412;5.432;2023-09-08T05:28:32;17.43;;;9.77;;
74064;SDS011;62421;51.412;5.432;2023-09-08T05:30:57;17.10;;;8.57;;
74064;SDS011;62421;51.412;5.432;2023-09-08T05:33:23;15.55;;;9.63;;
74064;SDS011;62421;51.412;5.432;2023-09-08T05:35:48;19.02;;;9.23;;
74064;SDS011;62421;51.412;5.432;2023-09-08T05:38:13;14.18;;;9.38;;
74064;SDS011;62421;51.412;5.432;2023-09-08T05:40:39;13.87;;;9.07;;
74064;SDS011;62421;51.412;5.432;2023-09-08T05:43:04;13.90;;;9.53;;
74064;SDS011;62421;51.412;5.432;2023-09-08T05:45:33;16.63;;;9.97;;
74064;SDS011;62421;51.412;5.432;2023-09-08T05:47:59;19.55;;;9.27;;
74064;SDS011;62421;51.412;5.432;2023-09-08T05:50:24;18.70;;;10.03;;
74064;SDS011;62421;51.412;5.432;2023-09-08T05:52:50;17.73;;;9.67;;
74064;SDS011;62421;51.412;5.432;2023-09-08T05:55:16;17.27;;;10.52;;
74064;SDS011;62421;51.412;5.432;2023-09-08T05:57:41;16.92;;;10.88;;
74064;SDS011;62421;51.412;5.432;2023-09-08T06:00:07;17.48;;;10.00;;
74064;SDS011;62421;51.412;5.432;2023-09-08T06:02:33;15.82;;;10.50;;
74064;SDS011;62421;51.412;5.432;2023-09-08T06:04:59;22.50;;;10.67;;
74064;SDS011;62421;51.412;5.432;2023-09-08T06:07:24;17.53;;;10.90;;
74064;SDS011;62421;51.412;5.432;2023-09-08T06:09:49;24.03;;;11.27;;
74064;SDS011;62421;51.412;5.432;2023-09-08T06:12:15;17.63;;;11.85;;
74064;SDS011;62421;51.412;5.432;2023-09-08T06:14:40;21.40;;;12.43;;
74064;SDS011;62421;51.412;5.432;2023-09-08T06:17:05;22.90;;;12.70;;
74064;SDS011;62421;51.412;5.432;2023-09-08T06:19:31;19.50;;;11.93;;
74064;SDS011;62421;51.412;5.432;2023-09-08T06:21:56;16.90;;;11.10;;
74064;SDS011;62421;51.412;5.432;2023-09-08T06:24:21;18.93;;;12.50;;
74064;SDS011;62421;51.412;5.432;2023-09-08T06:26:47;18.80;;;11.10;;
74064;SDS011;62421;51.412;5.432;2023-09-08T06:29:12;17.88;;;11.85;;
74064;SDS011;62421;51.412;5.432;2023-09-08T06:31:37;20.52;;;11.50;;
74064;SDS011;62421;51.412;5.432;2023-09-08T06:34:03;17.52;;;11.57;;
74064;SDS011;62421;51.412;5.432;2023-09-08T06:36:28;21.50;;;12.27;;
74064;SDS011;62421;51.412;5.432;2023-09-08T06:38:53;21.70;;;11.77;;
74064;SDS011;62421;51.412;5.432;2023-09-08T06:41:19;19.00;;;12.53;;
74064;SDS011;62421;51.412;5.432;2023-09-08T06:43:44;17.03;;;10.83;;
74064;SDS011;62421;51.412;5.432;2023-09-08T06:46:10;19.57;;;12.40;;
74064;SDS011;62421;51.412;5.432;2023-09-08T06:48:35;17.97;;;11.53;;
74064;SDS011;62421;51.412;5.432;2023-09-08T06:51:00;20.33;;;12.30;;
74064;SDS011;62421;51.412;5.432;2023-09-08T06:53:26;19.85;;;11.93;;
74064;SDS011;62421;51.412;5.432;2023-09-08T06:55:51;18.67;;;11.33;;
74064;SDS011;62421;51.412;5.432;2023-09-08T06:58:17;20.10;;;11.30;;
74064;SDS011;62421;51.412;5.432;2023-09-08T07:00:42;18.10;;;11.37;;
74064;SDS011;62421;51.412;5.432;2023-09-08T07:03:08;20.60;;;11.93;;
74064;SDS011;62421;51.412;5.432;2023-09-08T07:05:38;17.83;;;11.27;;
74064;SDS011;62421;51.412;5.432;2023-09-08T07:08:04;17.67;;;11.23;;
74064;SDS011;62421;51.412;5.432;2023-09-08T07:10:31;20.13;;;11.77;;
74064;SDS011;62421;51.412;5.432;2023-09-08T07:12:56;18.30;;;11.33;;
74064;SDS011;62421;51.412;5.432;2023-09-08T07:15:21;24.20;;;12.03;;
74064;SDS011;62421;51.412;5.432;2023-09-08T07:17:47;17.90;;;10.07;;
74064;SDS011;62421;51.412;5.432;2023-09-08T07:20:12;15.30;;;10.63;;
74064;SDS011;62421;51.412;5.432;2023-09-08T07:22:37;17.07;;;10.80;;
74064;SDS011;62421;51.412;5.432;2023-09-08T07:25:03;17.47;;;9.73;;
74064;SDS011;62421;51.412;5.432;2023-09-08T07:27:28;16.38;;;9.77;;
74064;SDS011;62421;51.412;5.432;2023-09-08T07:29:54;15.70;;;9.80;;
74064;SDS011;62421;51.412;5.432;2023-09-08T07:32:19;17.30;;;9.80;;
74064;SDS011;62421;51.412;5.432;2023-09-08T07:34:45;19.53;;;10.10;;
74064;SDS011;62421;51.412;5.432;2023-09-08T07:37:10;17.03;;;10.07;;
74064;SDS011;62421;51.412;5.432;2023-09-08T07:39:35;17.73;;;9.90;;
74064;SDS011;62421;51.412;5.432;2023-09-08T07:42:01;13.93;;;9.33;;
74064;SDS011;62421;51.412;5.432;2023-09-08T07:44:27;16.02;;;9.05;;
74064;SDS011;62421;51.412;5.432;2023-09-08T07:46:52;14.82;;;8.77;;
74064;SDS011;62421;51.412;5.432;2023-09-08T07:49:20;15.47;;;8.87;;
74064;SDS011;62421;51.412;5.432;2023-09-08T07:51:45;16.50;;;8.68;;
74064;SDS011;62421;51.412;5.432;2023-09-08T07:54:11;15.63;;;9.00;;
74064;SDS011;62421;51.412;5.432;2023-09-08T07:56:36;12.80;;;8.40;;
74064;SDS011;62421;51.412;5.432;2023-09-08T07:59:02;18.53;;;8.70;;
74064;SDS011;62421;51.412;5.432;2023-09-08T08:01:27;15.20;;;8.13;;
74064;SDS011;62421;51.412;5.432;2023-09-08T08:03:52;12.47;;;7.83;;
74064;SDS011;62421;51.412;5.432;2023-09-08T08:06:18;13.40;;;7.87;;
74064;SDS011;62421;51.412;5.432;2023-09-08T08:08:43;14.13;;;7.77;;
74064;SDS011;62421;51.412;5.432;2023-09-08T08:11:10;17.63;;;7.57;;
74064;SDS011;62421;51.412;5.432;2023-09-08T08:13:36;11.30;;;7.43;;
74064;SDS011;62421;51.412;5.432;2023-09-08T08:16:02;15.67;;;8.07;;
74064;SDS011;62421;51.412;5.432;2023-09-08T08:18:27;12.90;;;8.20;;
74064;SDS011;62421;51.412;5.432;2023-09-08T08:20:52;12.40;;;7.50;;
74064;SDS011;62421;51.412;5.432;2023-09-08T08:23:18;11.77;;;7.17;;
74064;SDS011;62421;51.412;5.432;2023-09-08T08:25:43;15.40;;;7.77;;
74064;SDS011;62421;51.412;5.432;2023-09-08T08:28:08;13.67;;;7.83;;
74064;SDS011;62421;51.412;5.432;2023-09-08T08:30:34;11.10;;;7.70;;
74064;SDS011;62421;51.412;5.432;2023-09-08T08:33:00;16.38;;;7.70;;
74064;SDS011;62421;51.412;5.432;2023-09-08T08:35:25;12.57;;;6.87;;
74064;SDS011;62421;51.412;5.432;2023-09-08T08:37:51;15.93;;;6.77;;
74064;SDS011;62421;51.412;5.432;2023-09-08T08:40:16;13.85;;;6.93;;
74064;SDS011;62421;51.412;5.432;2023-09-08T08:42:41;19.53;;;7.80;;
74064;SDS011;62421;51.412;5.432;2023-09-08T08:45:07;14.93;;;7.10;;
74064;SDS011;62421;51.412;5.432;2023-09-08T08:47:33;14.00;;;7.40;;
74064;SDS011;62421;51.412;5.432;2023-09-08T08:49:59;10.17;;;6.93;;
74064;SDS011;62421;51.412;5.432;2023-09-08T08:52:29;12.65;;;6.50;;
74064;SDS011;62421;51.412;5.432;2023-09-08T08:54:55;13.10;;;6.63;;
74064;SDS011;62421;51.412;5.432;2023-09-08T08:57:21;11.77;;;6.87;;
74064;SDS011;62421;51.412;5.432;2023-09-08T08:59:48;15.07;;;6.40;;
74064;SDS011;62421;51.412;5.432;2023-09-08T09:02:16;11.85;;;6.38;;
74064;SDS011;62421;51.412;5.432;2023-09-08T09:04:43;11.82;;;5.32;;
74064;SDS011;62421;51.412;5.432;2023-09-08T09:07:09;12.90;;;6.03;;
74064;SDS011;62421;51.412;5.432;2023-09-08T09:09:35;9.45;;;6.20;;
74064;SDS011;62421;51.412;5.432;2023-09-08T09:12:00;18.13;;;7.67;;
74064;SDS011;62421;51.412;5.432;2023-09-08T09:14:27;15.25;;;6.45;;
74064;SDS011;62421;51.412;5.432;2023-09-08T09:16:56;11.18;;;6.15;;
74064;SDS011;62421;51.412;5.432;2023-09-08T09:19:22;10.17;;;6.60;;
74064;SDS011;62421;51.412;5.432;2023-09-08T09:21:56;12.05;;;6.63;;
74064;SDS011;62421;51.412;5.432;2023-09-08T09:26:54;14.38;;;6.18;;
74064;SDS011;62421;51.412;5.432;2023-09-08T09:29:20;11.00;;;5.97;;
74064;SDS011;62421;51.412;5.432;2023-09-08T09:31:52;11.53;;;6.00;;
74064;SDS011;62421;51.412;5.432;2023-09-08T09:34:18;12.32;;;5.97;;
74064;SDS011;62421;51.412;5.432;2023-09-08T09:36:45;14.88;;;6.55;;
74064;SDS011;62421;51.412;5.432;2023-09-08T09:39:11;10.43;;;6.20;;
74064;SDS011;62421;51.412;5.432;2023-09-08T09:41:37;11.83;;;5.53;;
74064;SDS011;62421;51.412;5.432;2023-09-08T09:44:02;13.02;;;6.00;;
74064;SDS011;62421;51.412;5.432;2023-09-08T09:46:28;9.45;;;5.95;;
74064;SDS011;62421;51.412;5.432;2023-09-08T09:48:56;10.60;;;5.60;;
74064;SDS011;62421;51.412;5.432;2023-09-08T09:51:23;9.80;;;5.63;;
74064;SDS011;62421;51.412;5.432;2023-09-08T09:53:51;10.23;;;5.90;;
74064;SDS011;62421;51.412;5.432;2023-09-08T09:56:17;8.85;;;5.15;;
74064;SDS011;62421;51.412;5.432;2023-09-08T09:58:43;13.05;;;6.30;;
74064;SDS011;62421;51.412;5.432;2023-09-08T10:01:10;9.90;;;5.97;;
74064;SDS011;62421;51.412;5.432;2023-09-08T10:03:37;11.52;;;6.07;;
74064;SDS011;62421;51.412;5.432;2023-09-08T10:06:04;10.77;;;6.28;;
74064;SDS011;62421;51.412;5.432;2023-09-08T10:08:30;14.00;;;5.68;;
74064;SDS011;62421;51.412;5.432;2023-09-08T10:10:59;12.88;;;6.18;;
74064;SDS011;62421;51.412;5.432;2023-09-08T10:13:28;12.63;;;5.93;;
74064;SDS011;62421;51.412;5.432;2023-09-08T10:15:58;9.52;;;5.38;;
74064;SDS011;62421;51.412;5.432;2023-09-08T10:18:27;9.38;;;5.90;;
74064;SDS011;62421;51.412;5.432;2023-09-08T10:20:54;8.23;;;5.30;;
74064;SDS011;62421;51.412;5.432;2023-09-08T10:23:23;9.20;;;5.72;;
74064;SDS011;62421;51.412;5.432;2023-09-08T10:26:06;12.80;;;5.47;;
74064;SDS011;62421;51.412;5.432;2023-09-08T10:28:35;15.50;;;5.75;;
74064;SDS011;62421;51.412;5.432;2023-09-08T10:31:02;9.00;;;5.93;;
74064;SDS011;62421;51.412;5.432;2023-09-08T10:33:28;10.75;;;5.50;;
74064;SDS011;62421;51.412;5.432;2023-09-08T10:35:54;9.85;;;5.35;;
74064;SDS011;62421;51.412;5.432;2023-09-08T10:38:21;10.07;;;5.57;;
74064;SDS011;62421;51.412;5.432;2023-09-08T10:40:50;10.73;;;5.43;;
74064;SDS011;62421;51.412;5.432;2023-09-08T10:43:17;12.00;;;5.65;;
74064;SDS011;62421;51.412;5.432;2023-09-08T10:45:43;8.27;;;5.38;;
74064;SDS011;62421;51.412;5.432;2023-09-08T10:48:11;14.98;;;5.28;;
74064;SDS011;62421;51.412;5.432;2023-09-08T10:50:39;13.37;;;5.50;;
74064;SDS011;62421;51.412;5.432;2023-09-08T10:55:39;9.83;;;5.03;;
74064;SDS011;62421;51.412;5.432;2023-09-08T10:58:09;9.55;;;5.03;;
74064;SDS011;62421;51.412;5.432;2023-09-08T11:00:48;14.88;;;6.07;;
74064;SDS011;62421;51.412;5.432;2023-09-08T11:03:25;7.93;;;5.38;;
74064;SDS011;62421;51.412;5.432;2023-09-08T11:06:08;11.90;;;5.22;;
74064;SDS011;62421;51.412;5.432;2023-09-08T11:08:36;10.30;;;5.30;;
74064;SDS011;62421;51.412;5.432;2023-09-08T11:11:03;7.30;;;5.07;;
74064;SDS011;62421;51.412;5.432;2023-09-08T11:13:29;11.13;;;5.27;;
74064;SDS011;62421;51.412;5.432;2023-09-08T11:15:54;11.13;;;5.13;;
74064;SDS011;62421;51.412;5.432;2023-09-08T11:18:27;11.67;;;5.90;;
74064;SDS011;62421;51.412;5.432;2023-09-08T11:20:54;9.88;;;5.63;;
74064;SDS011;62421;51.412;5.432;2023-09-08T11:23:20;12.75;;;6.03;;
74064;SDS011;62421;51.412;5.432;2023-09-08T11:25:47;10.13;;;5.20;;
74064;SDS011;62421;51.412;5.432;2023-09-08T11:28:15;11.75;;;5.63;;
74064;SDS011;62421;51.412;5.432;2023-09-08T11:30:41;9.50;;;5.23;;
74064;SDS011;62421;51.412;5.432;2023-09-08T11:33:20;10.55;;;5.40;;
74064;SDS011;62421;51.412;5.432;2023-09-08T11:35:50;9.65;;;5.25;;
74064;SDS011;62421;51.412;5.432;2023-09-08T11:38:16;16.00;;;5.30;;
74064;SDS011;62421;51.412;5.432;2023-09-08T11:40:41;11.15;;;4.85;;
74064;SDS011;62421;51.412;5.432;2023-09-08T11:43:07;8.45;;;5.57;;
74064;SDS011;62421;51.412;5.432;2023-09-08T11:45:35;9.50;;;4.67;;
74064;SDS011;62421;51.412;5.432;2023-09-08T11:48:02;9.32;;;4.95;;
74064;SDS011;62421;51.412;5.432;2023-09-08T11:50:29;12.18;;;4.70;;
74064;SDS011;62421;51.412;5.432;2023-09-08T11:52:54;9.23;;;4.80;;
74064;SDS011;62421;51.412;5.432;2023-09-08T11:55:21;8.13;;;4.60;;
74064;SDS011;62421;51.412;5.432;2023-09-08T11:57:48;13.80;;;4.80;;
74064;SDS011;62421;51.412;5.432;2023-09-08T12:00:15;11.68;;;4.85;;
74064;SDS011;62421;51.412;5.432;2023-09-08T12:02:46;11.20;;;5.00;;
74064;SDS011;62421;51.412;5.432;2023-09-08T12:05:21;10.45;;;3.92;;
74064;SDS011;62421;51.412;5.432;2023-09-08T12:07:51;12.23;;;4.70;;
74064;SDS011;62421;51.412;5.432;2023-09-08T12:10:17;6.70;;;4.80;;
74064;SDS011;62421;51.412;5.432;2023-09-08T12:12:43;10.15;;;4.25;;
74064;SDS011;62421;51.412;5.432;2023-09-08T12:15:29;7.00;;;4.33;;
74064;SDS011;62421;51.412;5.432;2023-09-08T12:17:55;9.80;;;4.55;;
74064;SDS011;62421;51.412;5.432;2023-09-08T12:20:20;7.20;;;4.83;;
74064;SDS011;62421;51.412;5.432;2023-09-08T12:22:48;10.93;;;5.60;;
74064;SDS011;62421;51.412;5.432;2023-09-08T12:25:15;7.83;;;4.17;;
74064;SDS011;62421;51.412;5.432;2023-09-08T12:27:41;11.65;;;4.97;;
74064;SDS011;62421;51.412;5.432;2023-09-08T12:30:07;8.02;;;4.88;;
74064;SDS011;62421;51.412;5.432;2023-09-08T12:32:34;10.37;;;5.93;;
74064;SDS011;62421;51.412;5.432;2023-09-08T12:35:02;9.15;;;5.25;;
74064;SDS011;62421;51.412;5.432;2023-09-08T12:37:29;9.52;;;5.47;;
74064;SDS011;62421;51.412;5.432;2023-09-08T12:39:55;9.50;;;4.90;;
74064;SDS011;62421;51.412;5.432;2023-09-08T12:42:21;16.67;;;5.43;;
74064;SDS011;62421;51.412;5.432;2023-09-08T12:44:50;10.90;;;5.47;;
74064;SDS011;62421;51.412;5.432;2023-09-08T12:47:17;7.38;;;5.15;;
74064;SDS011;62421;51.412;5.432;2023-09-08T12:49:42;10.52;;;5.70;;
74064;SDS011;62421;51.412;5.432;2023-09-08T12:52:07;11.83;;;5.77;;
74064;SDS011;62421;51.412;5.432;2023-09-08T12:54:34;10.37;;;5.40;;
74064;SDS011;62421;51.412;5.432;2023-09-08T12:57:00;11.77;;;5.68;;
74064;SDS011;62421;51.412;5.432;2023-09-08T12:59:25;12.00;;;4.97;;
74064;SDS011;62421;51.412;5.432;2023-09-08T13:01:51;12.93;;;5.20;;
74064;SDS011;62421;51.412;5.432;2023-09-08T13:04:16;10.63;;;5.10;;
74064;SDS011;62421;51.412;5.432;2023-09-08T13:06:41;6.93;;;4.87;;
74064;SDS011;62421;51.412;5.432;2023-09-08T13:09:08;9.57;;;5.43;;
74064;SDS011;62421;51.412;5.432;2023-09-08T13:11:33;9.77;;;4.90;;
74064;SDS011;62421;51.412;5.432;2023-09-08T13:13:58;8.03;;;5.23;;
74064;SDS011;62421;51.412;5.432;2023-09-08T13:16:24;13.27;;;5.60;;
74064;SDS011;62421;51.412;5.432;2023-09-08T13:18:49;10.77;;;5.60;;
74064;SDS011;62421;51.412;5.432;2023-09-08T13:21:15;13.73;;;5.23;;
74064;SDS011;62421;51.412;5.432;2023-09-08T13:23:40;9.95;;;5.53;;
74064;SDS011;62421;51.412;5.432;2023-09-08T13:26:06;10.83;;;5.47;;
74064;SDS011;62421;51.412;5.432;2023-09-08T13:28:31;11.03;;;5.50;;
74064;SDS011;62421;51.412;5.432;2023-09-08T13:30:56;12.07;;;5.53;;
74064;SDS011;62421;51.412;5.432;2023-09-08T13:33:21;12.57;;;5.33;;
74064;SDS011;62421;51.412;5.432;2023-09-08T13:35:47;11.50;;;5.35;;
74064;SDS011;62421;51.412;5.432;2023-09-08T13:38:12;8.83;;;5.27;;
74064;SDS011;62421;51.412;5.432;2023-09-08T13:40:38;11.33;;;5.57;;
74064;SDS011;62421;51.412;5.432;2023-09-08T13:43:03;11.73;;;5.53;;
74064;SDS011;62421;51.412;5.432;2023-09-08T13:45:29;9.53;;;5.70;;
74064;SDS011;62421;51.412;5.432;2023-09-08T13:47:54;10.37;;;5.60;;
74064;SDS011;62421;51.412;5.432;2023-09-08T13:50:19;9.87;;;5.60;;
74064;SDS011;62421;51.412;5.432;2023-09-08T13:52:44;10.63;;;5.30;;
74064;SDS011;62421;51.412;5.432;2023-09-08T13:55:10;11.98;;;4.80;;
74064;SDS011;62421;51.412;5.432;2023-09-08T13:57:35;9.87;;;4.90;;
74064;SDS011;62421;51.412;5.432;2023-09-08T14:00:02;8.47;;;5.17;;
74064;SDS011;62421;51.412;5.432;2023-09-08T14:02:28;9.82;;;5.00;;
74064;SDS011;62421;51.412;5.432;2023-09-08T14:04:53;10.40;;;4.77;;
74064;SDS011;62421;51.412;5.432;2023-09-08T14:07:18;13.25;;;4.60;;
74064;SDS011;62421;51.412;5.432;2023-09-08T14:09:44;11.70;;;4.77;;
74064;SDS011;62421;51.412;5.432;2023-09-08T14:12:09;15.17;;;4.40;;
74064;SDS011;62421;51.412;5.432;2023-09-08T14:14:34;7.83;;;4.60;;
74064;SDS011;62421;51.412;5.432;2023-09-08T14:17:00;7.43;;;4.60;;
74064;SDS011;62421;51.412;5.432;2023-09-08T14:19:25;10.33;;;4.10;;
74064;SDS011;62421;51.412;5.432;2023-09-08T14:21:50;8.97;;;3.97;;
74064;SDS011;62421;51.412;5.432;2023-09-08T14:24:16;8.73;;;4.00;;
74064;SDS011;62421;51.412;5.432;2023-09-08T14:26:41;6.53;;;4.00;;
74064;SDS011;62421;51.412;5.432;2023-09-08T14:29:07;8.17;;;3.90;;
74064;SDS011;62421;51.412;5.432;2023-09-08T14:31:32;10.40;;;4.63;;
74064;SDS011;62421;51.412;5.432;2023-09-08T14:33:58;9.98;;;4.55;;
74064;SDS011;62421;51.412;5.432;2023-09-08T14:36:24;14.73;;;4.70;;
74064;SDS011;62421;51.412;5.432;2023-09-08T14:38:50;13.97;;;4.17;;